Veuillez saisir l'adresse e-mail associée à votre compte d'utilisateur. Un code de vérification vous sera adressé. Lorsque vous le recevrez, vous pourrez choisir un nouveau mot de passe

METAR TAF

[Source: ADDS]
METAR
LFCR 162000Z AUTO 12012KT CAVOK 10/07 Q1022 NOSIG =
LFCR 161700Z 1618/1718 13012KT CAVOK BECMG 1712/1713 29012KT RA BKN008 OVC016 BECMG 1716/1718 NSW SCT020 LFBA 162000Z AUTO 13010KT CAVOK 13/09 Q1021 NOSIG =
LFBA 161700Z 1618/1703 15010KT CAVOK LFSL 162000Z AUTO 16006KT CAVOK 12/07 Q1020 NOSIG =
LFSL 161700Z 1618/1703 16010KT CAVOK LFLW 161930Z AUTO 12005KT 090V180 9999 ////// 09/06 Q1022 =
LFLW 161400Z 1615/1624 16010KT CAVOK
TAF
LFCR 161700Z 1618/1718 13012KT CAVOK BECMG 1712/1713 29012KT RA BKN008 OVC016 BECMG 1716/1718 NSW SCT020 =
LFBA 161700Z 1618/1703 15010KT CAVOK =
LFSL 161700Z 1618/1703 16010KT CAVOK =
LFLW 161400Z 1615/1624 16010KT CAVOK =
SR / SS: 06:52 / 17:24 UTC (LFCC 2020-02-16)